sensor_id;sensor_type;location;lat;lon;timestamp;temperature;humidity
15596;DHT22;7898;48.658;9.068;2023-02-15T00:01:58;-1.10;99.90
15596;DHT22;7898;48.658;9.068;2023-02-15T00:04:25;-0.80;99.90
15596;DHT22;7898;48.658;9.068;2023-02-15T00:07:12;-1.10;99.90
15596;DHT22;7898;48.658;9.068;2023-02-15T00:09:39;-1.00;99.90
15596;DHT22;7898;48.658;9.068;2023-02-15T00:12:06;-0.70;99.90
15596;DHT22;7898;48.658;9.068;2023-02-15T00:14:35;-1.00;99.90
15596;DHT22;7898;48.658;9.068;2023-02-15T00:17:01;-0.90;99.90
15596;DHT22;7898;48.658;9.068;2023-02-15T00:19:28;-0.90;99.90
15596;DHT22;7898;48.658;9.068;2023-02-15T00:21:55;-0.90;99.90
15596;DHT22;7898;48.658;9.068;2023-02-15T00:24:22;-1.00;99.90
15596;DHT22;7898;48.658;9.068;2023-02-15T00:26:49;-1.20;99.90
15596;DHT22;7898;48.658;9.068;2023-02-15T00:29:17;-1.30;99.90
15596;DHT22;7898;48.658;9.068;2023-02-15T00:31:46;-1.40;99.90
15596;DHT22;7898;48.658;9.068;2023-02-15T00:34:16;-1.40;99.90
15596;DHT22;7898;48.658;9.068;2023-02-15T00:36:44;-1.50;99.90
15596;DHT22;7898;48.658;9.068;2023-02-15T00:39:11;-1.50;99.90
15596;DHT22;7898;48.658;9.068;2023-02-15T00:41:38;-1.50;99.90
15596;DHT22;7898;48.658;9.068;2023-02-15T00:44:05;-1.50;99.90
15596;DHT22;7898;48.658;9.068;2023-02-15T00:46:32;-1.50;99.90
15596;DHT22;7898;48.658;9.068;2023-02-15T00:49:01;-1.10;99.90
15596;DHT22;7898;48.658;9.068;2023-02-15T00:51:30;-1.50;99.90
15596;DHT22;7898;48.658;9.068;2023-02-15T00:53:57;-1.50;99.90
15596;DHT22;7898;48.658;9.068;2023-02-15T00:56:24;-1.50;99.90
15596;DHT22;7898;48.658;9.068;2023-02-15T00:58:53;-1.50;99.90
15596;DHT22;7898;48.658;9.068;2023-02-15T01:01:21;-1.50;99.90
15596;DHT22;7898;48.658;9.068;2023-02-15T01:03:48;-1.40;99.90
15596;DHT22;7898;48.658;9.068;2023-02-15T01:06:17;-1.40;99.90
15596;DHT22;7898;48.658;9.068;2023-02-15T01:08:45;-1.40;99.90
15596;DHT22;7898;48.658;9.068;2023-02-15T01:11:15;-1.20;99.90
15596;DHT22;7898;48.658;9.068;2023-02-15T01:13:47;-1.20;99.90
15596;DHT22;7898;48.658;9.068;2023-02-15T01:16:14;-1.50;99.90
15596;DHT22;7898;48.658;9.068;2023-02-15T01:18:41;-1.50;99.90
15596;DHT22;7898;48.658;9.068;2023-02-15T01:21:12;-1.60;99.90
15596;DHT22;7898;48.658;9.068;2023-02-15T01:23:41;-1.60;99.90
15596;DHT22;7898;48.658;9.068;2023-02-15T01:26:08;-1.60;99.90
15596;DHT22;7898;48.658;9.068;2023-02-15T01:28:35;-1.60;99.90
15596;DHT22;7898;48.658;9.068;2023-02-15T01:31:05;-0.90;99.90
15596;DHT22;7898;48.658;9.068;2023-02-15T01:33:33;-1.60;99.90
15596;DHT22;7898;48.658;9.068;2023-02-15T01:36:01;-1.60;99.90
15596;DHT22;7898;48.658;9.068;2023-02-15T01:38:28;-1.70;99.90
15596;DHT22;7898;48.658;9.068;2023-02-15T01:40:56;-1.70;99.90
15596;DHT22;7898;48.658;9.068;2023-02-15T01:43:46;-1.70;99.90
15596;DHT22;7898;48.658;9.068;2023-02-15T01:46:14;-1.80;99.90
15596;DHT22;7898;48.658;9.068;2023-02-15T01:48:44;-1.80;99.90
15596;DHT22;7898;48.658;9.068;2023-02-15T01:51:13;-1.80;99.90
15596;DHT22;7898;48.658;9.068;2023-02-15T01:53:43;-1.50;99.90
15596;DHT22;7898;48.658;9.068;2023-02-15T01:56:18;-1.80;99.90
15596;DHT22;7898;48.658;9.068;2023-02-15T01:58:46;-1.80;99.90
15596;DHT22;7898;48.658;9.068;2023-02-15T02:01:15;-1.80;99.90
15596;DHT22;7898;48.658;9.068;2023-02-15T02:03:56;-1.40;99.90
15596;DHT22;7898;48.658;9.068;2023-02-15T02:06:24;-1.90;99.90
15596;DHT22;7898;48.658;9.068;2023-02-15T02:08:53;-1.40;99.90
15596;DHT22;7898;48.658;9.068;2023-02-15T02:11:21;-1.90;99.90
15596;DHT22;7898;48.658;9.068;2023-02-15T02:13:50;-1.90;99.90
15596;DHT22;7898;48.658;9.068;2023-02-15T02:16:22;-1.90;99.90
15596;DHT22;7898;48.658;9.068;2023-02-15T02:18:59;-1.20;99.90
15596;DHT22;7898;48.658;9.068;2023-02-15T02:21:46;-1.90;99.90
15596;DHT22;7898;48.658;9.068;2023-02-15T02:24:48;-1.90;99.90
15596;DHT22;7898;48.658;9.068;2023-02-15T02:27:40;-1.90;99.90
15596;DHT22;7898;48.658;9.068;2023-02-15T02:36:15;-2.10;99.90
15596;DHT22;7898;48.658;9.068;2023-02-15T02:39:02;-2.10;99.90
15596;DHT22;7898;48.658;9.068;2023-02-15T02:41:37;-1.80;99.90
15596;DHT22;7898;48.658;9.068;2023-02-15T02:44:12;-2.00;99.90
15596;DHT22;7898;48.658;9.068;2023-02-15T02:46:53;-1.80;99.90
15596;DHT22;7898;48.658;9.068;2023-02-15T02:49:33;-2.10;99.90
15596;DHT22;7898;48.658;9.068;2023-02-15T02:52:01;-2.20;99.90
15596;DHT22;7898;48.658;9.068;2023-02-15T02:54:29;-2.20;99.90
15596;DHT22;7898;48.658;9.068;2023-02-15T02:56:59;-2.20;99.90
15596;DHT22;7898;48.658;9.068;2023-02-15T02:59:33;-2.20;99.90
15596;DHT22;7898;48.658;9.068;2023-02-15T03:02:04;-2.00;99.90
15596;DHT22;7898;48.658;9.068;2023-02-15T03:04:40;-2.30;99.90
15596;DHT22;7898;48.658;9.068;2023-02-15T03:07:12;-1.80;99.90
15596;DHT22;7898;48.658;9.068;2023-02-15T03:09:42;-2.40;99.90
15596;DHT22;7898;48.658;9.068;2023-02-15T03:12:12;-2.00;99.90
15596;DHT22;7898;48.658;9.068;2023-02-15T03:14:41;-2.40;99.90
15596;DHT22;7898;48.658;9.068;2023-02-15T03:17:11;-2.30;99.90
15596;DHT22;7898;48.658;9.068;2023-02-15T03:19:40;-2.20;99.90
15596;DHT22;7898;48.658;9.068;2023-02-15T03:22:13;-1.70;99.90
15596;DHT22;7898;48.658;9.068;2023-02-15T03:24:45;-2.20;99.90
15596;DHT22;7898;48.658;9.068;2023-02-15T03:27:15;-2.20;99.90
15596;DHT22;7898;48.658;9.068;2023-02-15T03:29:45;-2.20;99.90
15596;DHT22;7898;48.658;9.068;2023-02-15T03:32:14;-2.20;99.90
15596;DHT22;7898;48.658;9.068;2023-02-15T03:34:43;-2.20;99.90
15596;DHT22;7898;48.658;9.068;2023-02-15T03:37:15;-2.20;99.90
15596;DHT22;7898;48.658;9.068;2023-02-15T03:39:48;-2.20;99.90
15596;DHT22;7898;48.658;9.068;2023-02-15T03:42:19;-2.20;99.90
15596;DHT22;7898;48.658;9.068;2023-02-15T03:44:53;-2.40;99.90
15596;DHT22;7898;48.658;9.068;2023-02-15T03:47:24;-2.40;99.90
15596;DHT22;7898;48.658;9.068;2023-02-15T03:49:57;-2.50;99.90
15596;DHT22;7898;48.658;9.068;2023-02-15T03:52:26;-2.60;99.90
15596;DHT22;7898;48.658;9.068;2023-02-15T03:54:54;-2.70;99.90
15596;DHT22;7898;48.658;9.068;2023-02-15T03:57:24;-2.70;99.90
15596;DHT22;7898;48.658;9.068;2023-02-15T04:00:12;-2.70;99.90
15596;DHT22;7898;48.658;9.068;2023-02-15T04:03:10;-2.80;99.90
15596;DHT22;7898;48.658;9.068;2023-02-15T04:05:40;-2.10;99.90
15596;DHT22;7898;48.658;9.068;2023-02-15T04:08:07;-2.70;99.90
15596;DHT22;7898;48.658;9.068;2023-02-15T04:10:34;-2.70;99.90
15596;DHT22;7898;48.658;9.068;2023-02-15T04:13:18;-2.50;99.90
15596;DHT22;7898;48.658;9.068;2023-02-15T04:15:46;-2.50;99.90
15596;DHT22;7898;48.658;9.068;2023-02-15T04:18:34;-2.50;99.90
15596;DHT22;7898;48.658;9.068;2023-02-15T04:21:21;-2.50;99.90
15596;DHT22;7898;48.658;9.068;2023-02-15T04:24:06;-2.50;99.90
15596;DHT22;7898;48.658;9.068;2023-02-15T04:26:50;-2.70;99.90
15596;DHT22;7898;48.658;9.068;2023-02-15T04:29:18;-2.80;99.90
15596;DHT22;7898;48.658;9.068;2023-02-15T04:31:45;-2.90;99.90
15596;DHT22;7898;48.658;9.068;2023-02-15T04:34:12;-2.90;99.90
15596;DHT22;7898;48.658;9.068;2023-02-15T04:36:41;-2.90;99.90
15596;DHT22;7898;48.658;9.068;2023-02-15T04:39:08;-2.80;99.90
15596;DHT22;7898;48.658;9.068;2023-02-15T04:41:35;-2.80;99.90
15596;DHT22;7898;48.658;9.068;2023-02-15T04:44:03;-2.70;99.90
15596;DHT22;7898;48.658;9.068;2023-02-15T04:46:30;-2.70;99.90
15596;DHT22;7898;48.658;9.068;2023-02-15T04:48:57;-2.60;99.90
15596;DHT22;7898;48.658;9.068;2023-02-15T04:51:24;-2.70;99.90
15596;DHT22;7898;48.658;9.068;2023-02-15T04:53:52;-2.60;99.90
15596;DHT22;7898;48.658;9.068;2023-02-15T04:56:19;-2.90;99.90
15596;DHT22;7898;48.658;9.068;2023-02-15T04:58:47;-2.90;99.90
15596;DHT22;7898;48.658;9.068;2023-02-15T05:01:13;-3.00;99.90
15596;DHT22;7898;48.658;9.068;2023-02-15T05:03:40;-3.00;99.90
15596;DHT22;7898;48.658;9.068;2023-02-15T05:06:07;-3.00;99.90
15596;DHT22;7898;48.658;9.068;2023-02-15T05:08:34;-3.10;99.90
15596;DHT22;7898;48.658;9.068;2023-02-15T05:11:02;-3.10;99.90
15596;DHT22;7898;48.658;9.068;2023-02-15T05:13:29;-3.10;99.90
15596;DHT22;7898;48.658;9.068;2023-02-15T05:15:56;-3.00;99.90
15596;DHT22;7898;48.658;9.068;2023-02-15T05:18:23;-2.40;99.90
15596;DHT22;7898;48.658;9.068;2023-02-15T05:20:50;-3.00;99.90
15596;DHT22;7898;48.658;9.068;2023-02-15T05:23:17;-3.00;99.90
15596;DHT22;7898;48.658;9.068;2023-02-15T05:25:47;-3.10;99.90
15596;DHT22;7898;48.658;9.068;2023-02-15T05:28:34;-3.10;99.90
15596;DHT22;7898;48.658;9.068;2023-02-15T05:31:06;-3.20;99.90
15596;DHT22;7898;48.658;9.068;2023-02-15T05:33:34;-3.10;99.90
15596;DHT22;7898;48.658;9.068;2023-02-15T05:36:01;-3.20;99.90
15596;DHT22;7898;48.658;9.068;2023-02-15T05:38:28;-3.20;99.90
15596;DHT22;7898;48.658;9.068;2023-02-15T05:40:56;-3.20;99.90
15596;DHT22;7898;48.658;9.068;2023-02-15T05:43:23;-3.20;99.90
15596;DHT22;7898;48.658;9.068;2023-02-15T05:45:53;-3.20;99.90
15596;DHT22;7898;48.658;9.068;2023-02-15T05:48:24;-3.20;99.90
15596;DHT22;7898;48.658;9.068;2023-02-15T05:50:57;-3.00;99.90
15596;DHT22;7898;48.658;9.068;2023-02-15T05:53:25;-3.30;99.90
15596;DHT22;7898;48.658;9.068;2023-02-15T05:55:51;-3.30;99.90
15596;DHT22;7898;48.658;9.068;2023-02-15T05:58:19;-3.30;99.90
15596;DHT22;7898;48.658;9.068;2023-02-15T06:00:46;-3.30;99.90
15596;DHT22;7898;48.658;9.068;2023-02-15T06:03:14;-3.30;99.90
15596;DHT22;7898;48.658;9.068;2023-02-15T06:05:41;-3.30;99.90
15596;DHT22;7898;48.658;9.068;2023-02-15T06:08:08;-3.30;99.90
15596;DHT22;7898;48.658;9.068;2023-02-15T06:10:35;-3.30;99.90
15596;DHT22;7898;48.658;9.068;2023-02-15T06:13:02;-3.20;99.90
15596;DHT22;7898;48.658;9.068;2023-02-15T06:15:29;-3.20;99.90
15596;DHT22;7898;48.658;9.068;2023-02-15T06:17:56;-3.10;99.90
15596;DHT22;7898;48.658;9.068;2023-02-15T06:20:24;-3.10;99.90
15596;DHT22;7898;48.658;9.068;2023-02-15T06:22:51;-3.20;99.90
15596;DHT22;7898;48.658;9.068;2023-02-15T06:25:18;-3.20;99.90
15596;DHT22;7898;48.658;9.068;2023-02-15T06:27:45;-3.20;99.90
15596;DHT22;7898;48.658;9.068;2023-02-15T06:30:13;-3.20;99.90
15596;DHT22;7898;48.658;9.068;2023-02-15T06:32:40;-3.20;99.90
15596;DHT22;7898;48.658;9.068;2023-02-15T06:35:07;-3.20;99.90
15596;DHT22;7898;48.658;9.068;2023-02-15T06:37:35;-3.20;99.90
15596;DHT22;7898;48.658;9.068;2023-02-15T06:40:02;-3.10;99.90
15596;DHT22;7898;48.658;9.068;2023-02-15T06:42:30;-2.90;99.90
15596;DHT22;7898;48.658;9.068;2023-02-15T06:44:57;-2.60;99.90
15596;DHT22;7898;48.658;9.068;2023-02-15T06:47:25;-2.30;99.90
15596;DHT22;7898;48.658;9.068;2023-02-15T06:49:52;-1.90;99.90
15596;DHT22;7898;48.658;9.068;2023-02-15T06:52:19;-1.50;99.90
15596;DHT22;7898;48.658;9.068;2023-02-15T06:54:47;-1.20;99.90
15596;DHT22;7898;48.658;9.068;2023-02-15T06:57:14;-0.80;99.90
15596;DHT22;7898;48.658;9.068;2023-02-15T06:59:41;-0.40;99.90
15596;DHT22;7898;48.658;9.068;2023-02-15T07:02:08;0.20;99.90
15596;DHT22;7898;48.658;9.068;2023-02-15T07:04:35;0.70;99.90
15596;DHT22;7898;48.658;9.068;2023-02-15T07:07:02;1.30;99.90
15596;DHT22;7898;48.658;9.068;2023-02-15T07:09:29;2.00;99.90
15596;DHT22;7898;48.658;9.068;2023-02-15T07:11:57;2.50;99.90
15596;DHT22;7898;48.658;9.068;2023-02-15T07:14:41;2.90;99.90
15596;DHT22;7898;48.658;9.068;2023-02-15T07:17:08;3.40;99.90
15596;DHT22;7898;48.658;9.068;2023-02-15T07:19:35;3.70;99.90
15596;DHT22;7898;48.658;9.068;2023-02-15T07:22:02;4.20;99.90
15596;DHT22;7898;48.658;9.068;2023-02-15T07:24:30;4.20;99.90
15596;DHT22;7898;48.658;9.068;2023-02-15T07:26:59;4.40;99.90
15596;DHT22;7898;48.658;9.068;2023-02-15T07:29:26;4.90;99.90
15596;DHT22;7898;48.658;9.068;2023-02-15T07:31:53;5.40;99.90
15596;DHT22;7898;48.658;9.068;2023-02-15T07:34:20;5.70;99.90
15596;DHT22;7898;48.658;9.068;2023-02-15T07:36:50;5.50;99.90
15596;DHT22;7898;48.658;9.068;2023-02-15T07:39:17;5.60;99.90
15596;DHT22;7898;48.658;9.068;2023-02-15T07:41:44;5.20;99.90
15596;DHT22;7898;48.658;9.068;2023-02-15T07:44:13;5.00;99.90
15596;DHT22;7898;48.658;9.068;2023-02-15T07:46:40;5.70;99.90
15596;DHT22;7898;48.658;9.068;2023-02-15T07:49:07;6.00;99.90
15596;DHT22;7898;48.658;9.068;2023-02-15T07:51:34;6.10;99.90
15596;DHT22;7898;48.658;9.068;2023-02-15T07:54:01;6.30;99.90
15596;DHT22;7898;48.658;9.068;2023-02-15T07:56:28;6.70;99.90
15596;DHT22;7898;48.658;9.068;2023-02-15T07:58:55;7.20;99.90
15596;DHT22;7898;48.658;9.068;2023-02-15T08:01:26;7.60;99.90
15596;DHT22;7898;48.658;9.068;2023-02-15T08:03:54;8.20;99.90
15596;DHT22;7898;48.658;9.068;2023-02-15T08:06:22;8.30;99.90
15596;DHT22;7898;48.658;9.068;2023-02-15T08:08:49;8.30;99.90
15596;DHT22;7898;48.658;9.068;2023-02-15T08:11:19;8.60;99.90
15596;DHT22;7898;48.658;9.068;2023-02-15T08:13:53;9.40;99.90
15596;DHT22;7898;48.658;9.068;2023-02-15T08:16:25;10.00;99.90
15596;DHT22;7898;48.658;9.068;2023-02-15T08:18:57;10.60;99.90
15596;DHT22;7898;48.658;9.068;2023-02-15T08:21:26;10.70;99.90
15596;DHT22;7898;48.658;9.068;2023-02-15T08:23:54;11.30;99.90
15596;DHT22;7898;48.658;9.068;2023-02-15T08:26:21;11.60;99.90
15596;DHT22;7898;48.658;9.068;2023-02-15T08:28:48;11.90;99.90
15596;DHT22;7898;48.658;9.068;2023-02-15T08:31:16;11.70;99.90
15596;DHT22;7898;48.658;9.068;2023-02-15T08:33:45;10.60;99.90
15596;DHT22;7898;48.658;9.068;2023-02-15T08:36:15;10.80;99.90
15596;DHT22;7898;48.658;9.068;2023-02-15T08:38:42;10.90;99.90
15596;DHT22;7898;48.658;9.068;2023-02-15T08:41:12;11.60;99.90
15596;DHT22;7898;48.658;9.068;2023-02-15T08:43:39;11.40;99.90
15596;DHT22;7898;48.658;9.068;2023-02-15T08:46:06;11.20;99.90
15596;DHT22;7898;48.658;9.068;2023-02-15T08:48:33;10.90;99.90
15596;DHT22;7898;48.658;9.068;2023-02-15T08:51:06;10.90;99.90
15596;DHT22;7898;48.658;9.068;2023-02-15T08:53:36;10.80;99.90
15596;DHT22;7898;48.658;9.068;2023-02-15T08:56:03;10.90;99.90
15596;DHT22;7898;48.658;9.068;2023-02-15T08:58:30;11.00;99.90
15596;DHT22;7898;48.658;9.068;2023-02-15T09:00:57;10.90;99.90
15596;DHT22;7898;48.658;9.068;2023-02-15T09:03:25;11.60;99.90
15596;DHT22;7898;48.658;9.068;2023-02-15T09:05:58;11.70;99.90
15596;DHT22;7898;48.658;9.068;2023-02-15T09:08:27;12.20;99.90
15596;DHT22;7898;48.658;9.068;2023-02-15T09:11:05;13.00;99.90
15596;DHT22;7898;48.658;9.068;2023-02-15T09:13:32;13.20;99.90
15596;DHT22;7898;48.658;9.068;2023-02-15T09:16:00;13.10;99.90
15596;DHT22;7898;48.658;9.068;2023-02-15T09:18:31;12.90;99.90
15596;DHT22;7898;48.658;9.068;2023-02-15T09:21:04;12.70;99.90
15596;DHT22;7898;48.658;9.068;2023-02-15T09:23:33;13.10;99.90
15596;DHT22;7898;48.658;9.068;2023-02-15T09:26:05;13.50;99.90
15596;DHT22;7898;48.658;9.068;2023-02-15T09:28:32;13.40;99.90
15596;DHT22;7898;48.658;9.068;2023-02-15T09:31:05;13.40;99.90
15596;DHT22;7898;48.658;9.068;2023-02-15T09:33:34;12.80;99.90
15596;DHT22;7898;48.658;9.068;2023-02-15T09:36:01;12.50;99.90
15596;DHT22;7898;48.658;9.068;2023-02-15T09:38:28;12.20;99.90
15596;DHT22;7898;48.658;9.068;2023-02-15T09:41:09;11.60;99.90
15596;DHT22;7898;48.658;9.068;2023-02-15T09:43:42;11.50;99.90
15596;DHT22;7898;48.658;9.068;2023-02-15T09:46:35;11.60;99.90
15596;DHT22;7898;48.658;9.068;2023-02-15T09:49:10;11.60;99.90
15596;DHT22;7898;48.658;9.068;2023-02-15T09:52:04;11.60;99.90
15596;DHT22;7898;48.658;9.068;2023-02-15T09:54:49;12.00;99.90
15596;DHT22;7898;48.658;9.068;2023-02-15T09:57:24;12.40;99.90
15596;DHT22;7898;48.658;9.068;2023-02-15T10:00:02;12.60;99.90
15596;DHT22;7898;48.658;9.068;2023-02-15T10:02:45;12.70;99.90
15596;DHT22;7898;48.658;9.068;2023-02-15T10:05:26;12.80;99.90
15596;DHT22;7898;48.658;9.068;2023-02-15T10:08:18;13.00;99.90
15596;DHT22;7898;48.658;9.068;2023-02-15T10:10:56;13.40;99.90
15596;DHT22;7898;48.658;9.068;2023-02-15T10:13:50;13.40;99.90
15596;DHT22;7898;48.658;9.068;2023-02-15T10:16:23;13.50;99.90
15596;DHT22;7898;48.658;9.068;2023-02-15T10:19:02;13.60;99.90
15596;DHT22;7898;48.658;9.068;2023-02-15T10:21:41;13.70;99.90
15596;DHT22;7898;48.658;9.068;2023-02-15T10:24:24;14.00;99.90
15596;DHT22;7898;48.658;9.068;2023-02-15T10:26:58;14.20;99.90
15596;DHT22;7898;48.658;9.068;2023-02-15T10:29:32;14.30;99.90
15596;DHT22;7898;48.658;9.068;2023-02-15T10:32:10;14.50;99.90
15596;DHT22;7898;48.658;9.068;2023-02-15T10:34:45;14.50;99.90
15596;DHT22;7898;48.658;9.068;2023-02-15T10:37:47;14.60;99.90
15596;DHT22;7898;48.658;9.068;2023-02-15T10:40:25;14.70;99.90
15596;DHT22;7898;48.658;9.068;2023-02-15T10:43:14;14.70;99.90
15596;DHT22;7898;48.658;9.068;2023-02-15T10:45:56;14.40;99.90
15596;DHT22;7898;48.658;9.068;2023-02-15T10:48:55;14.30;99.90
15596;DHT22;7898;48.658;9.068;2023-02-15T10:51:34;14.40;99.90
15596;DHT22;7898;48.658;9.068;2023-02-15T10:54:17;14.40;99.90
15596;DHT22;7898;48.658;9.068;2023-02-15T10:56:54;14.00;99.90
15596;DHT22;7898;48.658;9.068;2023-02-15T10:59:38;14.20;99.90
15596;DHT22;7898;48.658;9.068;2023-02-15T11:02:17;14.40;99.90
15596;DHT22;7898;48.658;9.068;2023-02-15T11:05:02;14.50;99.90
15596;DHT22;7898;48.658;9.068;2023-02-15T11:07:38;14.60;99.90
15596;DHT22;7898;48.658;9.068;2023-02-15T11:10:28;14.90;99.90
15596;DHT22;7898;48.658;9.068;2023-02-15T11:12:57;14.80;99.90
15596;DHT22;7898;48.658;9.068;2023-02-15T11:15:30;14.70;99.90
15596;DHT22;7898;48.658;9.068;2023-02-15T11:18:05;15.00;99.90
15596;DHT22;7898;48.658;9.068;2023-02-15T11:20:41;15.10;99.90
15596;DHT22;7898;48.658;9.068;2023-02-15T11:23:13;15.10;99.90
15596;DHT22;7898;48.658;9.068;2023-02-15T11:25:43;15.00;99.90
15596;DHT22;7898;48.658;9.068;2023-02-15T11:28:18;15.10;99.90
15596;DHT22;7898;48.658;9.068;2023-02-15T11:30:48;15.10;99.90
15596;DHT22;7898;48.658;9.068;2023-02-15T11:33:22;15.10;99.90
15596;DHT22;7898;48.658;9.068;2023-02-15T11:35:55;15.10;99.90
15596;DHT22;7898;48.658;9.068;2023-02-15T11:38:28;15.20;99.90
15596;DHT22;7898;48.658;9.068;2023-02-15T11:40:59;15.20;99.90
15596;DHT22;7898;48.658;9.068;2023-02-15T11:43:32;15.30;99.90
15596;DHT22;7898;48.658;9.068;2023-02-15T11:46:01;15.60;99.90
15596;DHT22;7898;48.658;9.068;2023-02-15T11:48:31;15.40;99.90
15596;DHT22;7898;48.658;9.068;2023-02-15T11:50:58;15.40;99.90
15596;DHT22;7898;48.658;9.068;2023-02-15T11:53:28;15.40;99.90
15596;DHT22;7898;48.658;9.068;2023-02-15T11:55:57;15.60;99.90
15596;DHT22;7898;48.658;9.068;2023-02-15T11:58:29;15.70;99.90
15596;DHT22;7898;48.658;9.068;2023-02-15T12:01:01;15.70;99.90
15596;DHT22;7898;48.658;9.068;2023-02-15T12:03:42;15.80;99.90
15596;DHT22;7898;48.658;9.068;2023-02-15T12:06:16;15.80;99.90
15596;DHT22;7898;48.658;9.068;2023-02-15T12:08:48;16.00;99.90
15596;DHT22;7898;48.658;9.068;2023-02-15T12:11:20;16.10;99.90
15596;DHT22;7898;48.658;9.068;2023-02-15T12:13:57;16.30;99.90
15596;DHT22;7898;48.658;9.068;2023-02-15T12:16:25;16.40;99.90
15596;DHT22;7898;48.658;9.068;2023-02-15T12:18:56;16.60;99.90
15596;DHT22;7898;48.658;9.068;2023-02-15T12:21:27;16.70;99.90
15596;DHT22;7898;48.658;9.068;2023-02-15T12:23:56;16.90;99.90
15596;DHT22;7898;48.658;9.068;2023-02-15T12:26:25;16.90;99.90
15596;DHT22;7898;48.658;9.068;2023-02-15T12:28:53;16.70;99.70
15596;DHT22;7898;48.658;9.068;2023-02-15T12:31:26;16.80;99.80
15596;DHT22;7898;48.658;9.068;2023-02-15T12:33:57;17.10;98.80
15596;DHT22;7898;48.658;9.068;2023-02-15T12:36:30;16.90;98.10
15596;DHT22;7898;48.658;9.068;2023-02-15T12:39:20;17.00;98.20
15596;DHT22;7898;48.658;9.068;2023-02-15T12:41:59;17.30;97.50
15596;DHT22;7898;48.658;9.068;2023-02-15T12:44:28;17.50;96.10
15596;DHT22;7898;48.658;9.068;2023-02-15T12:46:58;17.50;93.80
15596;DHT22;7898;48.658;9.068;2023-02-15T12:49:27;17.50;94.50
15596;DHT22;7898;48.658;9.068;2023-02-15T12:51:56;17.60;94.80
15596;DHT22;7898;48.658;9.068;2023-02-15T12:54:34;18.00;94.20
15596;DHT22;7898;48.658;9.068;2023-02-15T12:57:14;18.10;93.80
15596;DHT22;7898;48.658;9.068;2023-02-15T12:59:51;18.10;96.60
15596;DHT22;7898;48.658;9.068;2023-02-15T13:02:28;18.10;98.20
15596;DHT22;7898;48.658;9.068;2023-02-15T13:05:10;18.00;99.30
15596;DHT22;7898;48.658;9.068;2023-02-15T13:07:45;17.80;99.40
15596;DHT22;7898;48.658;9.068;2023-02-15T13:10:22;17.80;99.70
15596;DHT22;7898;48.658;9.068;2023-02-15T13:12:52;17.60;99.90
15596;DHT22;7898;48.658;9.068;2023-02-15T13:15:29;17.40;99.80
15596;DHT22;7898;48.658;9.068;2023-02-15T13:17:58;17.60;99.20
15596;DHT22;7898;48.658;9.068;2023-02-15T13:20:28;17.80;99.70
15596;DHT22;7898;48.658;9.068;2023-02-15T13:22:58;18.10;99.90
15596;DHT22;7898;48.658;9.068;2023-02-15T13:25:30;18.30;98.70
15596;DHT22;7898;48.658;9.068;2023-02-15T13:28:01;18.50;99.30
15596;DHT22;7898;48.658;9.068;2023-02-15T13:30:31;18.40;98.10
15596;DHT22;7898;48.658;9.068;2023-02-15T13:33:03;18.40;98.00
15596;DHT22;7898;48.658;9.068;2023-02-15T13:35:38;18.30;98.20
15596;DHT22;7898;48.658;9.068;2023-02-15T13:38:15;18.00;98.30
15596;DHT22;7898;48.658;9.068;2023-02-15T13:40:48;17.50;98.60
15596;DHT22;7898;48.658;9.068;2023-02-15T13:43:30;17.30;98.20
15596;DHT22;7898;48.658;9.068;2023-02-15T13:46:18;17.20;99.00
15596;DHT22;7898;48.658;9.068;2023-02-15T13:48:54;17.20;98.80
15596;DHT22;7898;48.658;9.068;2023-02-15T13:51:32;17.40;98.10
15596;DHT22;7898;48.658;9.068;2023-02-15T13:54:29;17.50;98.60
15596;DHT22;7898;48.658;9.068;2023-02-15T13:57:13;17.10;98.80
15596;DHT22;7898;48.658;9.068;2023-02-15T13:59:54;17.10;99.30
15596;DHT22;7898;48.658;9.068;2023-02-15T14:02:37;17.40;99.10
15596;DHT22;7898;48.658;9.068;2023-02-15T14:05:21;17.40;99.10
15596;DHT22;7898;48.658;9.068;2023-02-15T14:07:58;17.50;98.90
15596;DHT22;7898;48.658;9.068;2023-02-15T14:10:46;17.40;98.70
15596;DHT22;7898;48.658;9.068;2023-02-15T14:13:52;17.10;99.20
15596;DHT22;7898;48.658;9.068;2023-02-15T14:16:30;17.00;99.20
15596;DHT22;7898;48.658;9.068;2023-02-15T14:19:09;17.10;98.80
15596;DHT22;7898;48.658;9.068;2023-02-15T14:21:44;17.20;98.70
15596;DHT22;7898;48.658;9.068;2023-02-15T14:24:24;17.90;98.70
15596;DHT22;7898;48.658;9.068;2023-02-15T14:26:59;18.50;97.70
15596;DHT22;7898;48.658;9.068;2023-02-15T14:29:45;18.40;98.00
15596;DHT22;7898;48.658;9.068;2023-02-15T14:32:16;18.70;96.70
15596;DHT22;7898;48.658;9.068;2023-02-15T14:34:50;18.80;96.60
15596;DHT22;7898;48.658;9.068;2023-02-15T14:37:22;18.90;96.60
15596;DHT22;7898;48.658;9.068;2023-02-15T14:39:58;19.00;96.10
15596;DHT22;7898;48.658;9.068;2023-02-15T14:42:47;19.20;96.20
15596;DHT22;7898;48.658;9.068;2023-02-15T14:45:21;19.50;95.30
15596;DHT22;7898;48.658;9.068;2023-02-15T14:47:56;19.80;95.50
15596;DHT22;7898;48.658;9.068;2023-02-15T14:50:42;19.80;95.60
15596;DHT22;7898;48.658;9.068;2023-02-15T14:56:21;20.50;94.30
15596;DHT22;7898;48.658;9.068;2023-02-15T14:59:18;20.70;93.70
15596;DHT22;7898;48.658;9.068;2023-02-15T15:01:56;20.40;93.30
15596;DHT22;7898;48.658;9.068;2023-02-15T15:04:30;20.20;93.20
15596;DHT22;7898;48.658;9.068;2023-02-15T15:07:02;19.70;92.50
15596;DHT22;7898;48.658;9.068;2023-02-15T15:09:30;19.60;93.10
15596;DHT22;7898;48.658;9.068;2023-02-15T15:12:32;20.00;92.70
15596;DHT22;7898;48.658;9.068;2023-02-15T15:15:03;20.30;91.50
15596;DHT22;7898;48.658;9.068;2023-02-15T15:18:00;20.40;91.50
15596;DHT22;7898;48.658;9.068;2023-02-15T15:20:40;19.90;90.80
15596;DHT22;7898;48.658;9.068;2023-02-15T15:23:41;19.60;90.90
15596;DHT22;7898;48.658;9.068;2023-02-15T15:26:30;19.10;91.00
15596;DHT22;7898;48.658;9.068;2023-02-15T15:29:03;18.50;92.00
15596;DHT22;7898;48.658;9.068;2023-02-15T15:31:37;18.70;91.80
15596;DHT22;7898;48.658;9.068;2023-02-15T15:34:28;19.00;91.60
15596;DHT22;7898;48.658;9.068;2023-02-15T15:37:27;19.40;91.70
15596;DHT22;7898;48.658;9.068;2023-02-15T15:40:17;19.80;90.90
15596;DHT22;7898;48.658;9.068;2023-02-15T15:42:50;19.60;91.10
15596;DHT22;7898;48.658;9.068;2023-02-15T15:45:47;19.40;90.60
15596;DHT22;7898;48.658;9.068;2023-02-15T15:48:29;19.30;91.00
15596;DHT22;7898;48.658;9.068;2023-02-15T15:51:02;18.70;91.50
15596;DHT22;7898;48.658;9.068;2023-02-15T15:53:37;17.60;92.90
15596;DHT22;7898;48.658;9.068;2023-02-15T15:56:10;16.70;93.90
15596;DHT22;7898;48.658;9.068;2023-02-15T15:58:43;15.50;95.40
15596;DHT22;7898;48.658;9.068;2023-02-15T16:01:12;14.60;96.70
15596;DHT22;7898;48.658;9.068;2023-02-15T16:03:48;13.90;97.50
15596;DHT22;7898;48.658;9.068;2023-02-15T16:06:27;13.10;98.50
15596;DHT22;7898;48.658;9.068;2023-02-15T16:08:54;12.50;99.50
15596;DHT22;7898;48.658;9.068;2023-02-15T16:11:23;12.10;99.90
15596;DHT22;7898;48.658;9.068;2023-02-15T16:13:51;11.70;99.90
15596;DHT22;7898;48.658;9.068;2023-02-15T16:16:22;11.40;99.90
15596;DHT22;7898;48.658;9.068;2023-02-15T16:18:51;11.20;99.90
15596;DHT22;7898;48.658;9.068;2023-02-15T16:21:21;11.00;99.90
15596;DHT22;7898;48.658;9.068;2023-02-15T16:24:07;10.80;99.90
15596;DHT22;7898;48.658;9.068;2023-02-15T16:29:38;10.30;99.90
15596;DHT22;7898;48.658;9.068;2023-02-15T16:32:16;10.10;99.90
15596;DHT22;7898;48.658;9.068;2023-02-15T16:34:51;9.90;99.90
15596;DHT22;7898;48.658;9.068;2023-02-15T16:37:20;9.80;99.90